Time;durP1;ratioP1;P1;durP2;ratioP2;P2;SDS_P1;SDS_P2;PMS_P1;PMS_P2;Temp;Humidity;BMP_temperature;BMP_pressure;BME280_temperature;BME280_humidity;BME280_pressure;Samples;Min_cycle;Max_cycle;Signal;HPM_P1;HPM_P2
2021/07/09 00:01:57;;;;;;;30.73;29.43;;;16.80;99.90;;;;;;4952486;29;20412;-73
2021/07/09 00:04:26;;;;;;;31.57;30.17;;;16.80;99.90;;;;;;4952162;29;20492;-73
2021/07/09 00:06:55;;;;;;;29.90;28.50;;;16.80;99.90;;;;;;4952030;28;20492;-74
2021/07/09 00:09:22;;;;;;;30.07;28.67;;;16.90;99.90;;;;;;4952349;28;20460;-74
2021/07/09 00:11:52;;;;;;;29.23;27.93;;;16.90;99.90;;;;;;4952063;29;20452;-74
2021/07/09 00:14:21;;;;;;;28.10;26.83;;;16.90;99.90;;;;;;4952271;29;20456;-74
2021/07/09 00:16:49;;;;;;;30.13;28.20;;;16.90;99.90;;;;;;4952105;29;20515;-74
2021/07/09 00:19:16;;;;;;;29.17;27.47;;;17.00;99.90;;;;;;4952238;29;20507;-73
2021/07/09 00:21:43;;;;;;;28.13;26.77;;;17.00;99.90;;;;;;4952343;29;20456;-76
2021/07/09 00:24:10;;;;;;;28.30;26.90;;;17.00;99.90;;;;;;4952366;28;20494;-77
2021/07/09 00:26:37;;;;;;;27.97;26.60;;;17.00;99.90;;;;;;4951752;29;20456;-76
2021/07/09 00:29:05;;;;;;;26.97;25.63;;;17.10;99.90;;;;;;4952022;29;20893;-76
2021/07/09 00:31:34;;;;;;;26.70;25.50;;;17.10;99.90;;;;;;4951602;28;20452;-76
2021/07/09 00:34:02;;;;;;;26.30;25.10;;;17.00;99.90;;;;;;4951775;28;20485;-76
2021/07/09 00:36:28;;;;;;;25.60;24.43;;;17.10;99.90;;;;;;4951971;28;20452;-76
2021/07/09 00:38:55;;;;;;;24.57;23.43;;;17.10;99.90;;;;;;4951923;28;20527;-76
2021/07/09 00:41:22;;;;;;;26.20;24.93;;;17.10;99.90;;;;;;4951942;28;20456;-74
2021/07/09 00:43:49;;;;;;;26.77;25.60;;;17.10;99.90;;;;;;4951604;28;20546;-74
2021/07/09 00:46:28;;;;;;;27.80;26.30;;;17.10;99.90;;;;;;4951727;28;20453;-73
2021/07/09 00:48:54;;;;;;;27.80;26.70;;;17.10;99.90;;;;;;4951787;29;20514;-74
2021/07/09 00:51:21;;;;;;;28.27;26.97;;;17.10;99.90;;;;;;4951882;28;20478;-73
2021/07/09 00:53:48;;;;;;;30.60;28.80;;;17.10;99.90;;;;;;4951526;28;20455;-73
2021/07/09 00:56:14;;;;;;;31.47;29.67;;;17.10;99.90;;;;;;4952019;29;20488;-73
2021/07/09 00:58:41;;;;;;;32.13;30.63;;;17.10;99.90;;;;;;4951950;29;20463;-74
2021/07/09 01:01:08;;;;;;;32.17;30.67;;;17.10;99.90;;;;;;4951971;28;20460;-74
2021/07/09 01:03:36;;;;;;;33.83;32.17;;;17.10;99.90;;;;;;4955392;29;20551;-73
2021/07/09 01:06:03;;;;;;;33.37;31.60;;;17.10;99.90;;;;;;4955292;29;21031;-74
2021/07/09 01:08:29;;;;;;;35.10;33.07;;;17.00;99.90;;;;;;4955344;29;20487;-74
2021/07/09 01:10:56;;;;;;;34.10;32.50;;;17.00;99.90;;;;;;4955716;29;20463;-74
2021/07/09 01:13:23;;;;;;;35.03;33.27;;;16.90;99.90;;;;;;4955484;28;20448;-74
2021/07/09 01:15:49;;;;;;;35.57;33.67;;;16.90;99.90;;;;;;4955268;29;20456;-73
2021/07/09 01:18:17;;;;;;;37.30;35.20;;;16.90;99.90;;;;;;4955127;29;20472;-74
2021/07/09 01:20:45;;;;;;;36.07;34.00;;;17.00;99.90;;;;;;4955639;28;20503;-74
2021/07/09 01:23:12;;;;;;;36.50;34.60;;;17.00;99.90;;;;;;4955297;29;20859;-74
2021/07/09 01:25:40;;;;;;;36.03;33.90;;;17.00;99.90;;;;;;4955291;28;20464;-74
2021/07/09 01:28:08;;;;;;;36.67;34.17;;;17.00;99.90;;;;;;4955111;28;20456;-75
2021/07/09 01:30:37;;;;;;;35.97;33.70;;;17.00;99.90;;;;;;4955170;28;20523;-75
2021/07/09 01:33:04;;;;;;;35.83;34.03;;;17.00;99.90;;;;;;4954525;28;20515;-76
2021/07/09 01:35:31;;;;;;;34.90;33.20;;;16.80;99.90;;;;;;4954955;29;20464;-75
2021/07/09 01:38:02;;;;;;;36.07;34.10;;;16.80;99.90;;;;;;4955359;29;20460;-74
2021/07/09 01:40:30;;;;;;;36.00;34.07;;;16.70;99.90;;;;;;4954804;29;20969;-74
2021/07/09 01:42:58;;;;;;;35.30;33.50;;;16.70;99.90;;;;;;4954929;29;20456;-75
2021/07/09 01:45:25;;;;;;;37.10;35.10;;;16.70;99.90;;;;;;4955072;29;20453;-74
2021/07/09 01:47:52;;;;;;;37.13;34.63;;;16.70;99.90;;;;;;4954860;28;20455;-75
2021/07/09 01:50:21;;;;;;;36.80;34.80;;;16.80;99.90;;;;;;4954546;29;20914;-74
2021/07/09 01:52:47;;;;;;;36.73;34.60;;;16.70;99.90;;;;;;4954868;28;20909;-75
2021/07/09 01:55:17;;;;;;;36.27;34.17;;;16.80;99.90;;;;;;4954379;29;20456;-75
2021/07/09 01:57:44;;;;;;;35.67;33.67;;;16.70;99.90;;;;;;4954723;29;20448;-74
2021/07/09 02:00:15;;;;;;;36.13;34.00;;;16.80;99.90;;;;;;4954811;28;20509;-73
2021/07/09 02:02:42;;;;;;;36.03;33.93;;;16.80;99.90;;;;;;4954729;29;20456;-74
2021/07/09 02:05:12;;;;;;;35.13;33.33;;;16.80;99.90;;;;;;4954354;29;20547;-74
2021/07/09 02:07:41;;;;;;;37.47;34.97;;;16.80;99.90;;;;;;4954209;28;20499;-74
2021/07/09 02:10:09;;;;;;;37.23;34.90;;;16.90;99.90;;;;;;4954176;29;20456;-74
2021/07/09 02:12:37;;;;;;;34.50;32.80;;;16.90;99.90;;;;;;4954092;28;20509;-75
2021/07/09 02:15:08;;;;;;;33.47;31.83;;;16.90;99.90;;;;;;4954507;29;20530;-75
2021/07/09 02:17:36;;;;;;;34.33;32.43;;;16.90;99.90;;;;;;4954437;29;20539;-76
2021/07/09 02:20:06;;;;;;;33.60;31.83;;;16.90;99.90;;;;;;4954259;29;20456;-75
2021/07/09 02:22:33;;;;;;;31.70;30.07;;;16.90;99.90;;;;;;4954190;29;20448;-76
2021/07/09 02:24:59;;;;;;;32.60;30.90;;;16.90;99.90;;;;;;4954087;29;20902;-75
2021/07/09 02:27:32;;;;;;;34.03;32.37;;;16.80;99.90;;;;;;4954376;29;20437;-73
2021/07/09 02:45:32;;;;;;;32.63;30.93;;;16.90;99.90;;;;;;5712389;23;20498;-72
2021/07/09 02:47:59;;;;;;;33.40;31.37;;;16.80;99.90;;;;;;5010594;28;20453;-72
2021/07/09 02:50:26;;;;;;;32.93;31.43;;;16.80;99.90;;;;;;5003582;28;20514;-72
2021/07/09 02:52:53;;;;;;;33.20;31.60;;;16.80;99.90;;;;;;4992344;28;20641;-72
2021/07/09 02:55:22;;;;;;;33.30;31.60;;;16.80;99.90;;;;;;4995291;28;20748;-73
2021/07/09 02:57:49;;;;;;;33.23;31.70;;;16.80;99.90;;;;;;4998847;28;20486;-72
2021/07/09 03:00:17;;;;;;;32.50;30.90;;;16.80;99.90;;;;;;4992004;28;20458;-73
2021/07/09 03:02:45;;;;;;;32.43;30.83;;;16.70;99.90;;;;;;4992304;28;20510;-74
2021/07/09 03:05:13;;;;;;;32.50;30.90;;;16.70;99.90;;;;;;4992249;28;20889;-73
2021/07/09 03:07:40;;;;;;;31.57;29.93;;;16.70;99.90;;;;;;4991743;28;20455;-73
2021/07/09 03:10:09;;;;;;;33.90;32.30;;;16.70;99.90;;;;;;4991811;28;20451;-71
2021/07/09 03:12:38;;;;;;;34.47;32.50;;;16.60;99.90;;;;;;4991793;28;20451;-70
2021/07/09 03:15:10;;;;;;;32.93;31.40;;;16.60;99.90;;;;;;4991545;28;20458;-71
2021/07/09 03:17:37;;;;;;;32.30;30.70;;;16.60;99.90;;;;;;4991464;28;20450;-72
2021/07/09 03:20:07;;;;;;;33.33;31.73;;;16.60;99.90;;;;;;4991418;28;20631;-71
2021/07/09 03:22:34;;;;;;;31.70;30.30;;;16.60;99.90;;;;;;4991436;28;20450;-72
2021/07/09 03:25:01;;;;;;;33.70;31.90;;;16.60;99.90;;;;;;4990552;28;21087;-72
2021/07/09 03:27:27;;;;;;;32.60;30.80;;;16.60;99.90;;;;;;4991564;28;20462;-71
2021/07/09 03:29:54;;;;;;;32.17;30.63;;;16.60;99.90;;;;;;4991042;28;20509;-72
2021/07/09 03:32:21;;;;;;;32.77;30.83;;;16.60;99.90;;;;;;4991408;28;20455;-71
2021/07/09 03:34:47;;;;;;;33.73;31.40;;;16.60;99.90;;;;;;4991296;28;20912;-71
2021/07/09 03:37:15;;;;;;;32.30;30.60;;;16.50;99.90;;;;;;4991405;28;20451;-74
2021/07/09 03:39:43;;;;;;;32.10;30.20;;;16.60;99.90;;;;;;4991471;28;20466;-73
2021/07/09 03:42:10;;;;;;;32.23;30.63;;;16.50;99.90;;;;;;4991591;28;20525;-73
2021/07/09 03:44:37;;;;;;;31.90;30.30;;;16.50;99.90;;;;;;4991009;28;20490;-73
2021/07/09 03:47:04;;;;;;;30.97;29.57;;;16.60;99.90;;;;;;4990850;28;20549;-74
2021/07/09 03:49:30;;;;;;;32.03;30.23;;;16.50;99.90;;;;;;4991155;28;20807;-73
2021/07/09 03:51:57;;;;;;;31.60;30.20;;;16.50;99.90;;;;;;4991441;28;20446;-75
2021/07/09 03:54:25;;;;;;;31.97;30.27;;;16.50;99.90;;;;;;4991046;28;20482;-75
2021/07/09 03:56:52;;;;;;;34.17;32.47;;;16.50;99.90;;;;;;4997408;28;20584;-76
2021/07/09 03:59:18;;;;;;;33.37;31.67;;;16.50;99.90;;;;;;4995006;28;20768;-73
2021/07/09 04:01:45;;;;;;;32.90;31.00;;;16.50;99.90;;;;;;4990775;28;20459;-74
2021/07/09 04:04:12;;;;;;;32.60;30.80;;;16.50;99.90;;;;;;4991138;28;20491;-73
2021/07/09 04:06:39;;;;;;;34.13;32.40;;;16.50;99.90;;;;;;4991175;28;20459;-73
2021/07/09 04:09:05;;;;;;;31.27;29.67;;;16.50;99.90;;;;;;4990904;28;20455;-74
2021/07/09 04:11:33;;;;;;;31.60;30.10;;;16.50;99.90;;;;;;4990659;28;20506;-73
2021/07/09 04:14:00;;;;;;;33.70;31.70;;;16.60;99.90;;;;;;4990717;28;20497;-72
2021/07/09 04:16:27;;;;;;;38.60;36.50;;;16.50;99.90;;;;;;4991300;28;20860;-74
2021/07/09 04:18:54;;;;;;;37.77;35.77;;;16.50;99.90;;;;;;4991041;28;20518;-75
2021/07/09 04:21:20;;;;;;;39.23;37.23;;;16.50;99.90;;;;;;4991121;28;20454;-75
2021/07/09 04:23:47;;;;;;;38.70;36.40;;;16.40;99.90;;;;;;4990638;28;20458;-75
2021/07/09 04:26:14;;;;;;;38.10;36.03;;;16.50;99.90;;;;;;4990454;28;20533;-74
2021/07/09 04:28:42;;;;;;;39.03;37.07;;;16.40;99.90;;;;;;4990797;28;20920;-74
2021/07/09 04:31:09;;;;;;;38.93;37.03;;;16.40;99.90;;;;;;4990622;28;20451;-72
2021/07/09 04:33:36;;;;;;;38.90;37.00;;;16.40;99.90;;;;;;4990290;28;20443;-74
2021/07/09 04:36:03;;;;;;;36.80;35.00;;;16.40;99.90;;;;;;4990531;28;20894;-75
2021/07/09 04:38:29;;;;;;;38.60;36.50;;;16.40;99.90;;;;;;4990316;28;20936;-74
2021/07/09 04:40:56;;;;;;;38.93;36.90;;;16.40;99.90;;;;;;4990741;28;20457;-74
2021/07/09 04:43:23;;;;;;;40.10;37.50;;;16.40;99.90;;;;;;4990441;28;20478;-74
2021/07/09 04:45:51;;;;;;;41.37;39.10;;;16.50;99.90;;;;;;4990178;28;20740;-74
2021/07/09 04:48:18;;;;;;;39.80;37.53;;;16.40;99.90;;;;;;4990538;28;20455;-74
2021/07/09 04:50:44;;;;;;;40.00;37.87;;;16.50;99.90;;;;;;4990558;28;20451;-74
2021/07/09 04:53:11;;;;;;;39.90;37.80;;;16.50;99.90;;;;;;4990714;28;20454;-75
2021/07/09 04:55:37;;;;;;;37.93;36.03;;;16.50;99.90;;;;;;4990693;28;20506;-75
2021/07/09 04:58:04;;;;;;;38.73;36.63;;;16.50;99.90;;;;;;4997481;28;20470;-75
2021/07/09 05:00:31;;;;;;;38.57;36.67;;;16.50;99.90;;;;;;4993744;28;20463;-75
2021/07/09 05:02:59;;;;;;;40.80;38.27;;;16.50;99.90;;;;;;4990224;28;20946;-75
2021/07/09 05:05:26;;;;;;;38.80;37.00;;;16.50;99.90;;;;;;4990522;28;20490;-75
2021/07/09 05:07:53;;;;;;;38.30;36.30;;;16.50;99.90;;;;;;4990249;28;20447;-74
2021/07/09 05:10:20;;;;;;;40.30;38.00;;;16.40;99.90;;;;;;4990263;28;20455;-74
2021/07/09 05:12:47;;;;;;;39.90;37.70;;;16.40;99.90;;;;;;4990246;28;20871;-75
2021/07/09 05:15:14;;;;;;;37.33;35.63;;;16.30;99.90;;;;;;4990448;28;20809;-75
2021/07/09 05:17:41;;;;;;;37.80;35.70;;;16.40;99.90;;;;;;4990576;28;20451;-75
2021/07/09 05:20:10;;;;;;;37.10;35.20;;;16.40;99.90;;;;;;4990047;28;20513;-74
2021/07/09 05:22:37;;;;;;;36.80;35.10;;;16.40;99.90;;;;;;4990090;28;20458;-75
2021/07/09 05:25:04;;;;;;;35.87;34.17;;;16.40;99.90;;;;;;4989996;28;20537;-74
2021/07/09 05:27:31;;;;;;;35.37;33.70;;;16.40;99.90;;;;;;4989962;28;21003;-74
2021/07/09 05:29:58;;;;;;;34.57;32.97;;;16.40;99.90;;;;;;4990241;28;20460;-75
2021/07/09 05:32:26;;;;;;;33.30;31.83;;;16.30;99.90;;;;;;4990538;28;20522;-76
2021/07/09 05:34:54;;;;;;;30.93;29.57;;;16.40;99.90;;;;;;4990175;28;20450;-75
2021/07/09 05:37:23;;;;;;;31.30;29.90;;;16.30;99.90;;;;;;4992243;28;20477;-75
2021/07/09 05:39:50;;;;;;;30.70;29.20;;;16.30;99.90;;;;;;5009056;28;20710;-75
2021/07/09 05:42:17;;;;;;;29.73;28.43;;;16.30;99.90;;;;;;5009202;28;20446;-75
2021/07/09 05:44:44;;;;;;;28.23;27.03;;;16.30;99.90;;;;;;5007231;28;20564;-75
2021/07/09 05:47:11;;;;;;;28.00;26.63;;;16.40;99.90;;;;;;5009119;28;20596;-76
2021/07/09 05:49:38;;;;;;;28.63;27.33;;;16.40;99.90;;;;;;5012795;28;20454;-75
2021/07/09 05:52:05;;;;;;;28.20;26.80;;;16.40;99.90;;;;;;5012642;28;20558;-74
2021/07/09 05:54:33;;;;;;;27.27;25.70;;;16.40;99.90;;;;;;5012555;28;20453;-74
2021/07/09 05:57:00;;;;;;;25.57;24.23;;;16.40;99.90;;;;;;5010625;28;20449;-75
2021/07/09 05:59:27;;;;;;;26.17;24.90;;;16.50;99.90;;;;;;5012965;28;20490;-74
2021/07/09 06:01:53;;;;;;;23.83;22.60;;;16.50;99.90;;;;;;5012808;28;21006;-74
2021/07/09 06:04:20;;;;;;;23.77;22.70;;;16.50;99.90;;;;;;5012572;28;20454;-74
2021/07/09 06:06:47;;;;;;;24.33;23.10;;;16.60;99.90;;;;;;5012610;28;20855;-74
2021/07/09 06:09:14;;;;;;;26.70;25.40;;;16.60;99.90;;;;;;5012417;28;20454;-74
2021/07/09 06:11:43;;;;;;;29.63;28.17;;;16.50;99.90;;;;;;5012806;28;20454;-73
2021/07/09 06:14:10;;;;;;;34.23;32.63;;;16.50;99.90;;;;;;5012756;28;20458;-73
2021/07/09 06:16:36;;;;;;;33.60;31.70;;;16.60;99.90;;;;;;5012121;28;20446;-74
2021/07/09 06:19:03;;;;;;;34.33;32.73;;;16.50;99.90;;;;;;5011982;28;20454;-74
2021/07/09 06:21:30;;;;;;;32.67;30.97;;;16.50;99.90;;;;;;5011770;28;20504;-74
2021/07/09 06:23:57;;;;;;;33.90;32.20;;;16.60;99.90;;;;;;5012176;28;20473;-74
2021/07/09 06:26:23;;;;;;;34.13;32.40;;;16.70;99.90;;;;;;5011932;28;20478;-74
2021/07/09 06:28:51;;;;;;;34.80;33.10;;;16.70;99.90;;;;;;5011820;28;20462;-74
2021/07/09 06:31:18;;;;;;;32.33;30.73;;;16.80;99.90;;;;;;5011457;28;20454;-74
2021/07/09 06:33:45;;;;;;;34.07;32.37;;;16.80;99.90;;;;;;5011631;28;20458;-74
2021/07/09 06:36:12;;;;;;;32.03;30.63;;;16.90;99.90;;;;;;5011805;28;20473;-74
2021/07/09 06:38:39;;;;;;;32.13;30.37;;;16.90;99.90;;;;;;5011967;28;20453;-73
2021/07/09 06:41:05;;;;;;;32.10;30.60;;;16.90;99.90;;;;;;5011745;28;20454;-74
2021/07/09 06:43:32;;;;;;;36.10;34.30;;;17.00;99.90;;;;;;5011414;28;20853;-73
2021/07/09 06:46:00;;;;;;;35.50;33.80;;;17.10;99.90;;;;;;5011258;28;20572;-74
2021/07/09 06:48:27;;;;;;;37.00;34.73;;;17.00;99.90;;;;;;5011971;28;20553;-74
2021/07/09 06:50:53;;;;;;;35.23;33.53;;;17.00;99.90;;;;;;5011515;28;20438;-74
2021/07/09 06:53:20;;;;;;;36.27;34.40;;;17.00;99.90;;;;;;5011308;28;20450;-75
2021/07/09 06:55:47;;;;;;;35.87;34.00;;;17.00;99.90;;;;;;5011232;28;20509;-75
2021/07/09 06:58:13;;;;;;;36.47;34.87;;;17.10;99.90;;;;;;5011424;28;20454;-75
2021/07/09 07:00:40;;;;;;;37.20;35.50;;;17.20;99.90;;;;;;5010433;28;20461;-75
2021/07/09 07:03:08;;;;;;;38.37;36.57;;;17.30;99.90;;;;;;5011040;28;20450;-75
2021/07/09 07:05:35;;;;;;;38.80;36.90;;;17.30;99.90;;;;;;5003113;28;20493;-75
2021/07/09 07:08:13;;;;;;;37.00;35.40;;;17.20;99.90;;;;;;5011034;28;20457;-74
2021/07/09 07:10:40;;;;;;;40.30;37.90;;;17.20;99.90;;;;;;5011388;28;20453;-73
2021/07/09 07:13:06;;;;;;;38.10;36.30;;;17.20;99.90;;;;;;5010908;28;20454;-74
2021/07/09 07:15:33;;;;;;;37.03;34.80;;;17.30;99.90;;;;;;5010854;28;20449;-74
2021/07/09 07:18:02;;;;;;;37.03;35.10;;;17.30;99.90;;;;;;5010794;28;20457;-74
2021/07/09 07:20:30;;;;;;;36.50;34.50;;;17.50;99.90;;;;;;5011030;28;20450;-74
2021/07/09 07:22:57;;;;;;;32.63;31.13;;;17.70;99.90;;;;;;5011251;28;20454;-74
2021/07/09 07:25:24;;;;;;;32.83;31.33;;;17.70;99.90;;;;;;5011064;28;20508;-75
2021/07/09 07:27:51;;;;;;;30.87;29.50;;;17.80;99.90;;;;;;5010803;28;20852;-75
2021/07/09 07:30:18;;;;;;;30.97;29.37;;;18.00;99.90;;;;;;5010772;28;20454;-75
2021/07/09 07:32:46;;;;;;;29.37;27.73;;;18.10;99.90;;;;;;5010824;28;20829;-74
2021/07/09 07:35:13;;;;;;;26.80;25.70;;;18.20;99.90;;;;;;5010739;28;20916;-75
2021/07/09 07:37:41;;;;;;;27.13;25.40;;;18.30;99.90;;;;;;5011035;28;20454;-75
2021/07/09 07:40:09;;;;;;;26.97;25.47;;;18.50;99.90;;;;;;5010639;28;20505;-75
2021/07/09 07:42:35;;;;;;;26.13;24.97;;;18.60;99.90;;;;;;5010393;28;20509;-74
2021/07/09 07:45:03;;;;;;;23.83;22.80;;;18.90;99.90;;;;;;5010303;28;20490;-75
2021/07/09 07:47:30;;;;;;;23.40;22.30;;;19.10;99.90;;;;;;5010393;28;20582;-75
2021/07/09 07:49:57;;;;;;;21.97;20.77;;;19.40;99.90;;;;;;5010802;28;20462;-75
2021/07/09 07:52:24;;;;;;;21.70;20.70;;;19.30;99.90;;;;;;5010520;28;20450;-74
2021/07/09 07:54:52;;;;;;;23.37;22.20;;;19.40;99.90;;;;;;5010289;28;20932;-74
2021/07/09 07:57:20;;;;;;;24.67;23.67;;;19.40;99.90;;;;;;5010185;28;20632;-74
2021/07/09 07:59:47;;;;;;;22.27;21.37;;;19.50;99.90;;;;;;5010052;28;20924;-73
2021/07/09 08:02:13;;;;;;;22.50;21.50;;;19.50;99.90;;;;;;5010280;28;20517;-73
2021/07/09 08:04:40;;;;;;;24.30;22.97;;;19.50;99.90;;;;;;5010129;28;20796;-73
2021/07/09 08:07:08;;;;;;;23.27;22.27;;;19.30;99.90;;;;;;5009769;28;20486;-74
2021/07/09 08:09:35;;;;;;;22.70;21.80;;;19.50;99.90;;;;;;5001812;28;20489;-73
2021/07/09 08:12:05;;;;;;;22.10;20.97;;;19.80;99.90;;;;;;5009595;28;20458;-74
2021/07/09 08:14:31;;;;;;;21.50;20.60;;;19.70;99.90;;;;;;5009778;28;20488;-74
2021/07/09 08:16:58;;;;;;;20.33;19.33;;;19.80;99.90;;;;;;5009980;28;20446;-74
2021/07/09 08:19:25;;;;;;;20.53;19.53;;;20.30;99.90;;;;;;5010358;28;20442;-74
2021/07/09 08:21:52;;;;;;;18.57;17.77;;;20.90;99.90;;;;;;5009952;28;20450;-74
2021/07/09 08:24:20;;;;;;;19.27;18.17;;;21.30;99.90;;;;;;5010050;28;20469;-74
2021/07/09 08:26:47;;;;;;;18.27;17.20;;;21.50;99.90;;;;;;5009712;28;20629;-74
2021/07/09 08:29:15;;;;;;;17.97;16.87;;;21.50;99.90;;;;;;5009905;28;20460;-73
2021/07/09 08:31:42;;;;;;;17.77;17.00;;;21.10;99.90;;;;;;5010051;28;20453;-73
2021/07/09 08:34:08;;;;;;;16.50;15.80;;;21.00;99.90;;;;;;5009996;28;20458;-73
2021/07/09 08:36:35;;;;;;;18.30;17.20;;;21.10;99.90;;;;;;5009688;28;20449;-73
2021/07/09 08:39:02;;;;;;;17.73;16.43;;;21.20;99.90;;;;;;5009623;28;20461;-72
2021/07/09 08:41:29;;;;;;;15.80;15.10;;;21.20;99.90;;;;;;5009739;28;20825;-72
2021/07/09 08:43:55;;;;;;;17.43;16.60;;;21.30;99.90;;;;;;5009749;28;20998;-72
2021/07/09 08:46:27;;;;;;;15.73;15.13;;;21.70;99.90;;;;;;5009373;28;20903;-74
2021/07/09 08:48:54;;;;;;;16.07;15.17;;;21.80;99.90;;;;;;5009610;28;20445;-73
2021/07/09 08:51:20;;;;;;;16.00;14.87;;;22.20;99.90;;;;;;5009672;28;20458;-75
2021/07/09 08:53:47;;;;;;;15.97;15.20;;;22.60;99.90;;;;;;5009426;28;20857;-75
2021/07/09 08:56:15;;;;;;;17.00;15.80;;;23.00;99.90;;;;;;5009485;28;20460;-74
2021/07/09 08:58:42;;;;;;;17.03;16.33;;;23.10;99.90;;;;;;5009804;28;20454;-73
2021/07/09 09:01:08;;;;;;;16.77;16.07;;;22.90;99.90;;;;;;5009573;28;20446;-73
2021/07/09 09:03:36;;;;;;;16.23;15.53;;;22.60;99.90;;;;;;5009248;28;20457;-72
2021/07/09 09:06:03;;;;;;;16.93;16.00;;;22.70;99.90;;;;;;5009266;28;20859;-72
2021/07/09 09:08:34;;;;;;;16.93;16.03;;;22.80;99.90;;;;;;5009173;28;20457;-72
2021/07/09 09:11:01;;;;;;;16.70;15.80;;;22.80;99.90;;;;;;5009042;28;20458;-72
2021/07/09 09:13:30;;;;;;;17.63;16.73;;;23.10;99.90;;;;;;5009635;28;20797;-72
2021/07/09 09:16:05;;;;;;;17.10;16.20;;;23.60;99.90;;;;;;5009504;28;20445;-72
2021/07/09 09:18:33;;;;;;;16.70;15.70;;;24.60;99.90;;;;;;5009300;28;20447;-73
2021/07/09 09:21:04;;;;;;;16.57;15.77;;;24.90;99.90;;;;;;5009286;28;20494;-72
2021/07/09 09:23:35;;;;;;;17.27;16.33;;;25.90;99.90;;;;;;5011195;28;20465;-72
2021/07/09 09:26:02;;;;;;;16.97;16.17;;;26.40;99.90;;;;;;5012999;28;20491;-73
2021/07/09 09:28:30;;;;;;;18.40;17.07;;;26.80;99.90;;;;;;5013109;28;20513;-73
2021/07/09 09:30:57;;;;;;;16.17;15.40;;;26.50;99.90;;;;;;5012975;28;20457;-73
2021/07/09 09:33:32;;;;;;;17.20;16.30;;;26.40;99.90;;;;;;5012930;28;20479;-73
2021/07/09 09:35:59;;;;;;;16.07;15.30;;;26.00;99.90;;;;;;5011093;28;20548;-73
2021/07/09 09:38:28;;;;;;;16.13;15.33;;;25.90;99.90;;;;;;5011128;28;20457;-73
2021/07/09 09:40:57;;;;;;;15.53;14.90;;;25.70;99.90;;;;;;5011460;28;20453;-74
2021/07/09 09:43:25;;;;;;;15.80;15.10;;;26.70;99.90;;;;;;5012772;28;20446;-72
2021/07/09 09:46:03;;;;;;;16.87;15.80;;;27.30;99.10;;;;;;5012406;28;20540;-73
2021/07/09 09:48:39;;;;;;;15.30;14.70;;;26.70;98.20;;;;;;5012503;28;20497;-73
2021/07/09 09:51:24;;;;;;;16.60;15.90;;;26.40;99.10;;;;;;5012412;28;20853;-73
2021/07/09 09:53:55;;;;;;;16.03;15.23;;;26.60;99.10;;;;;;5012511;28;21029;-73
2021/07/09 09:56:32;;;;;;;15.97;15.10;;;26.20;99.70;;;;;;5012355;28;20438;-73
2021/07/09 09:59:16;;;;;;;15.50;14.80;;;26.40;99.40;;;;;;5012460;28;20552;-72
2021/07/09 10:01:47;;;;;;;15.13;14.43;;;26.50;99.20;;;;;;5005411;28;20931;-72
2021/07/09 10:04:14;;;;;;;17.03;16.03;;;26.30;99.90;;;;;;5012355;28;20839;-73
2021/07/09 10:06:42;;;;;;;16.57;15.67;;;26.30;99.90;;;;;;5012211;28;20485;-72
2021/07/09 10:09:11;;;;;;;16.50;15.60;;;25.90;99.90;;;;;;5012258;28;20450;-71
2021/07/09 10:11:38;;;;;;;16.47;15.13;;;26.00;99.90;;;;;;5012180;28;20457;-72
2021/07/09 10:14:06;;;;;;;15.13;14.43;;;25.80;99.50;;;;;;5011709;28;20449;-72
2021/07/09 10:16:33;;;;;;;15.73;15.03;;;25.30;98.80;;;;;;5011707;28;20851;-71
2021/07/09 10:19:01;;;;;;;16.20;15.30;;;25.30;99.60;;;;;;5011725;28;20858;-71
2021/07/09 10:21:29;;;;;;;17.00;16.20;;;25.10;99.60;;;;;;5011895;28;20474;-72
2021/07/09 10:23:55;;;;;;;17.97;16.70;;;25.00;99.60;;;;;;5012280;28;20802;-71
2021/07/09 10:26:24;;;;;;;18.10;16.97;;;25.40;99.90;;;;;;5011509;28;20548;-72
2021/07/09 10:29:08;;;;;;;18.20;17.27;;;25.90;99.90;;;;;;5011361;28;20513;-72
2021/07/09 10:31:36;;;;;;;16.90;16.17;;;26.60;97.10;;;;;;5011520;28;20453;-72
2021/07/09 10:34:38;;;;;;;17.50;16.60;;;27.00;96.00;;;;;;5011433;28;20477;-73
2021/07/09 10:37:08;;;;;;;16.57;15.97;;;27.40;95.90;;;;;;5005007;28;20787;-73
2021/07/09 10:39:45;;;;;;;17.20;16.40;;;28.60;94.00;;;;;;5009965;28;20505;-72
2021/07/09 10:42:30;;;;;;;17.60;16.80;;;29.30;92.70;;;;;;5011703;28;20454;-73
2021/07/09 10:45:02;;;;;;;17.17;16.43;;;29.50;92.10;;;;;;5007954;28;20537;-72
2021/07/09 10:47:40;;;;;;;16.80;16.00;;;29.20;91.70;;;;;;5011453;28;20514;-73
2021/07/09 10:50:08;;;;;;;17.03;16.00;;;28.80;92.70;;;;;;5011442;28;20468;-73
2021/07/09 10:52:47;;;;;;;17.33;16.63;;;29.20;92.40;;;;;;5003372;28;20456;-72
2021/07/09 10:55:33;;;;;;;18.03;17.13;;;29.10;90.80;;;;;;5011554;28;20450;-73
2021/07/09 10:58:42;;;;;;;19.23;18.20;;;27.50;93.80;;;;;;5011234;28;20795;-72
2021/07/09 11:01:18;;;;;;;20.17;18.53;;;26.50;95.50;;;;;;5007952;28;20458;-72
2021/07/09 11:03:48;;;;;;;17.53;16.63;;;26.30;96.50;;;;;;5004439;28;20477;-73
2021/07/09 11:06:17;;;;;;;17.23;16.30;;;26.40;96.50;;;;;;5011203;28;21007;-73
2021/07/09 11:09:04;;;;;;;17.50;16.53;;;26.40;96.80;;;;;;5011233;28;20460;-73
2021/07/09 11:11:49;;;;;;;18.63;17.50;;;26.40;95.90;;;;;;5010870;28;20461;-72
2021/07/09 11:14:20;;;;;;;17.80;16.90;;;26.20;96.70;;;;;;5009618;28;20466;-72
2021/07/09 11:16:50;;;;;;;17.90;17.10;;;26.80;96.20;;;;;;5010954;28;20530;-73
2021/07/09 11:19:18;;;;;;;16.70;15.77;;;27.40;95.00;;;;;;5010718;28;20761;-74
2021/07/09 11:21:53;;;;;;;17.50;16.70;;;27.60;94.00;;;;;;5010892;28;20517;-73
2021/07/09 11:24:22;;;;;;;18.50;17.60;;;28.80;93.90;;;;;;5010567;28;21022;-73
2021/07/09 11:26:50;;;;;;;19.83;18.83;;;29.30;92.30;;;;;;5010686;28;20557;-73
2021/07/09 11:29:29;;;;;;;17.97;17.17;;;29.20;90.60;;;;;;5010714;28;20521;-73
2021/07/09 11:31:58;;;;;;;18.10;17.10;;;28.40;92.20;;;;;;5010814;28;20974;-73
2021/07/09 11:34:26;;;;;;;17.67;16.77;;;27.80;93.20;;;;;;5010844;28;21295;-73
2021/07/09 11:36:54;;;;;;;18.27;17.40;;;27.80;93.10;;;;;;5010759;28;20505;-74
2021/07/09 11:39:23;;;;;;;20.17;19.17;;;28.30;92.90;;;;;;5010333;28;20505;-73
2021/07/09 11:41:54;;;;;;;19.77;18.77;;;28.00;92.30;;;;;;5010146;28;20450;-73
2021/07/09 11:44:23;;;;;;;19.60;18.70;;;27.70;92.40;;;;;;5010261;28;20473;-73
2021/07/09 11:46:51;;;;;;;17.63;16.83;;;27.20;93.20;;;;;;5009476;28;20553;-74
2021/07/09 11:49:21;;;;;;;19.13;18.10;;;26.90;94.80;;;;;;5010130;28;20454;-72
2021/07/09 11:51:50;;;;;;;29.10;27.53;;;26.30;96.60;;;;;;5010337;28;20460;-71
2021/07/09 11:54:22;;;;;;;47.13;44.17;;;25.40;99.90;;;;;;5010391;28;20777;-72
2021/07/09 11:56:52;;;;;;;45.67;42.97;;;24.20;99.90;;;;;;5010032;28;20541;-72
2021/07/09 11:59:20;;;;;;;30.47;27.67;;;23.60;99.90;;;;;;5009923;28;20960;-73
2021/07/09 12:02:00;;;;;;;25.43;24.03;;;24.10;99.90;;;;;;5010006;28;20461;-74
2021/07/09 12:04:33;;;;;;;27.03;25.37;;;25.20;99.90;;;;;;5010618;28;20473;-75
2021/07/09 12:07:17;;;;;;;50.53;47.40;;;25.70;99.90;;;;;;5010156;28;20508;-76
2021/07/09 12:09:45;;;;;;;51.70;48.60;;;24.10;99.90;;;;;;5003444;28;20461;-76
2021/07/09 12:12:12;;;;;;;52.07;48.80;;;22.60;99.90;;;;;;5010270;28;20541;-73
2021/07/09 12:14:53;;;;;;;52.57;49.70;;;21.90;99.90;;;;;;5010338;28;20974;-73
2021/07/09 12:17:20;;;;;;;37.80;35.57;;;21.50;99.90;;;;;;5010050;28;20901;-73
2021/07/09 12:20:00;;;;;;;32.70;31.00;;;21.10;99.90;;;;;;5010265;28;20466;-74
2021/07/09 12:22:29;;;;;;;31.37;29.80;;;21.00;99.90;;;;;;5010296;28;20528;-74
2021/07/09 12:24:56;;;;;;;30.50;28.80;;;21.30;99.90;;;;;;5010087;28;20453;-75
2021/07/09 12:27:23;;;;;;;29.70;27.80;;;21.80;99.90;;;;;;5009817;28;20486;-75
2021/07/09 12:29:51;;;;;;;28.53;27.07;;;22.20;99.90;;;;;;5009904;28;20717;-75
2021/07/09 12:32:18;;;;;;;29.20;27.50;;;22.60;99.90;;;;;;5009793;28;20902;-75
2021/07/09 12:34:45;;;;;;;28.87;27.17;;;22.90;99.90;;;;;;5009795;28;20446;-74
2021/07/09 12:37:13;;;;;;;30.17;27.63;;;23.30;99.90;;;;;;5010047;28;20449;-73
2021/07/09 12:39:40;;;;;;;29.10;27.17;;;23.90;99.90;;;;;;5009976;28;20505;-73
2021/07/09 12:42:12;;;;;;;27.03;25.13;;;24.00;99.90;;;;;;5009746;28;20457;-72
2021/07/09 12:44:51;;;;;;;27.13;25.43;;;24.00;99.90;;;;;;5001993;28;20541;-72
2021/07/09 12:47:18;;;;;;;25.87;24.50;;;24.00;99.90;;;;;;5009458;28;20608;-72
2021/07/09 12:49:44;;;;;;;24.20;22.80;;;23.90;99.90;;;;;;5009737;28;20450;-72
2021/07/09 12:52:15;;;;;;;23.33;22.13;;;24.30;99.90;;;;;;5009956;28;20873;-72